createdAt,value
2017-01-31T00:00:21.237Z,1008.09
2017-01-31T00:01:32.644Z,1008.17
2017-01-31T00:02:44.296Z,1008.18
2017-01-31T00:03:55.699Z,1008.19
2017-01-31T00:05:07.108Z,1008.18
2017-01-31T00:06:18.511Z,1008.24
2017-01-31T00:07:29.917Z,1008.29
2017-01-31T00:08:41.379Z,1008.3
2017-01-31T00:09:52.784Z,1008.27
2017-01-31T00:11:04.191Z,1008.26
2017-01-31T00:12:15.601Z,1008.24
2017-01-31T00:13:27.008Z,1008.27
2017-01-31T00:14:38.470Z,1008.25
2017-01-31T00:15:49.882Z,1008.24
2017-01-31T00:17:01.287Z,1008.25
2017-01-31T00:18:12.679Z,1008.28
2017-01-31T00:19:24.283Z,1008.25
2017-01-31T00:20:35.743Z,1008.28
2017-01-31T00:21:47.352Z,1008.29
2017-01-31T00:22:58.760Z,1008.29
2017-01-31T00:24:10.165Z,1008.28
2017-01-31T00:25:21.570Z,1008.27
2017-01-31T00:26:33.032Z,1008.28
2017-01-31T00:27:44.427Z,1008.29
2017-01-31T00:28:56.030Z,1008.3
2017-01-31T00:30:07.440Z,1008.31
2017-01-31T00:31:18.834Z,1008.34
2017-01-31T00:32:30.287Z,1008.35
2017-01-31T00:33:41.730Z,1008.33
2017-01-31T00:34:53.137Z,1008.35
2017-01-31T00:36:04.736Z,1008.34
2017-01-31T00:37:16.139Z,1008.38
2017-01-31T00:38:27.599Z,1008.43
2017-01-31T00:39:39.014Z,1008.43
2017-01-31T00:40:50.421Z,1008.4
2017-01-31T00:42:01.828Z,1008.42
2017-01-31T00:43:13.238Z,1008.41
2017-01-31T00:44:24.701Z,1008.38
2017-01-31T00:45:36.106Z,1008.42
2017-01-31T00:46:47.517Z,1008.43
2017-01-31T00:47:58.918Z,1008.37
2017-01-31T00:49:10.527Z,1008.34
2017-01-31T00:50:21.978Z,1008.39
2017-01-31T00:51:33.381Z,1008.38
2017-01-31T00:52:44.986Z,1008.34
2017-01-31T00:53:56.399Z,1008.38
2017-01-31T00:55:07.994Z,1008.39
2017-01-31T00:56:19.446Z,1008.35
2017-01-31T00:57:31.256Z,1008.38
2017-01-31T00:58:42.659Z,1008.38
2017-01-31T00:59:54.063Z,1008.39
2017-01-31T01:01:05.474Z,1008.34
2017-01-31T01:02:16.929Z,1008.37
2017-01-31T01:03:28.373Z,1008.41
2017-01-31T01:04:39.775Z,1008.38
2017-01-31T01:05:51.381Z,1008.39
2017-01-31T01:07:02.785Z,1008.44
2017-01-31T01:08:14.262Z,1008.38
2017-01-31T01:09:25.676Z,1008.36
2017-01-31T01:10:37.069Z,1008.35
2017-01-31T01:11:48.477Z,1008.34
2017-01-31T01:12:59.886Z,1008.33
2017-01-31T01:14:11.544Z,1008.34
2017-01-31T01:15:22.939Z,1008.34
2017-01-31T01:16:34.543Z,1008.36
2017-01-31T01:17:46.156Z,1008.39
2017-01-31T01:18:57.563Z,1008.39
2017-01-31T01:20:09.015Z,1008.36
2017-01-31T01:21:20.627Z,1008.37
2017-01-31T01:22:32.042Z,1008.4
2017-01-31T01:23:43.444Z,1008.38
2017-01-31T01:24:54.851Z,1008.4
2017-01-31T01:26:06.311Z,1008.39
2017-01-31T01:27:17.713Z,1008.39
2017-01-31T01:28:29.111Z,1008.4
2017-01-31T01:29:40.516Z,1008.44
2017-01-31T01:30:51.922Z,1008.41
2017-01-31T01:32:03.571Z,1008.51
2017-01-31T01:33:14.979Z,1008.53
2017-01-31T01:34:26.387Z,1008.55
2017-01-31T01:35:37.812Z,1008.55
2017-01-31T01:36:49.217Z,1008.61
2017-01-31T01:38:00.677Z,1008.61
2017-01-31T01:39:12.079Z,1008.6
2017-01-31T01:40:23.687Z,1008.61
2017-01-31T01:41:35.119Z,1008.63
2017-01-31T01:42:46.527Z,1008.62
2017-01-31T01:43:57.979Z,1008.59
2017-01-31T01:45:09.375Z,1008.61
2017-01-31T01:46:20.781Z,1008.61
2017-01-31T01:47:32.208Z,1008.6
2017-01-31T01:48:43.816Z,1008.62
2017-01-31T01:49:55.470Z,1008.62
2017-01-31T01:51:06.867Z,1008.64
2017-01-31T01:52:18.271Z,1008.64
2017-01-31T01:53:29.711Z,1008.66
2017-01-31T01:54:41.117Z,1008.67
2017-01-31T01:55:52.576Z,1008.66
2017-01-31T01:57:03.977Z,1008.61
2017-01-31T01:58:15.383Z,1008.65
2017-01-31T01:59:26.802Z,1008.67
2017-01-31T02:00:38.409Z,1008.66
2017-01-31T02:01:49.866Z,1008.64
2017-01-31T02:03:01.473Z,1008.64
2017-01-31T02:04:12.878Z,1008.7
2017-01-31T02:05:24.482Z,1008.71
2017-01-31T02:06:35.918Z,1008.7
2017-01-31T02:07:47.369Z,1008.74
2017-01-31T02:08:58.980Z,1008.72
2017-01-31T02:10:10.387Z,1008.75
2017-01-31T02:11:21.795Z,1008.73
2017-01-31T02:12:33.207Z,1008.74
2017-01-31T02:13:44.657Z,1008.73
2017-01-31T02:14:56.061Z,1008.79
2017-01-31T02:16:07.466Z,1008.79
2017-01-31T02:17:18.883Z,1008.82
2017-01-31T02:18:30.495Z,1008.85
2017-01-31T02:19:41.954Z,1008.84
2017-01-31T02:20:53.362Z,1008.79
2017-01-31T02:22:04.973Z,1008.86
2017-01-31T02:23:16.376Z,1008.86
2017-01-31T02:24:27.985Z,1008.86
2017-01-31T02:25:39.638Z,1008.85
2017-01-31T02:26:51.048Z,1008.92
2017-01-31T02:28:02.654Z,1008.91
2017-01-31T02:29:14.078Z,1008.91
2017-01-31T02:30:25.480Z,1008.93
2017-01-31T02:31:37.137Z,1008.91
2017-01-31T02:32:48.556Z,1008.92
2017-01-31T02:34:00.176Z,1008.93
2017-01-31T02:35:11.590Z,1008.98
2017-01-31T02:36:22.994Z,1008.95
2017-01-31T02:37:34.853Z,1008.97
2017-01-31T02:38:46.259Z,1008.93
2017-01-31T02:39:57.868Z,1008.96
2017-01-31T02:41:09.272Z,1008.93
2017-01-31T02:42:21.071Z,1008.92
2017-01-31T02:43:32.525Z,1008.93
2017-01-31T02:44:43.925Z,1009.01
2017-01-31T02:45:55.333Z,1008.98
2017-01-31T02:47:06.734Z,1008.98
2017-01-31T02:48:18.134Z,1009.01
2017-01-31T02:49:29.595Z,1009.01
2017-01-31T02:50:40.994Z,1008.96
2017-01-31T02:51:52.406Z,1008.94
2017-01-31T02:53:03.811Z,1008.97
2017-01-31T02:54:15.423Z,1008.95
2017-01-31T02:55:26.882Z,1008.95
2017-01-31T02:56:38.291Z,1008.95
2017-01-31T02:57:49.709Z,1008.95
2017-01-31T02:59:01.133Z,1008.91
2017-01-31T03:00:12.541Z,1008.96
2017-01-31T03:01:24.192Z,1008.95
2017-01-31T03:02:35.594Z,1008.98
2017-01-31T03:03:47.008Z,1008.98
2017-01-31T03:04:58.416Z,1008.95
2017-01-31T03:06:09.819Z,1008.97
2017-01-31T03:07:21.277Z,1008.97
2017-01-31T03:08:32.875Z,1008.93
2017-01-31T03:09:44.481Z,1008.94
2017-01-31T03:10:55.886Z,1008.95
2017-01-31T03:12:07.297Z,1008.97
2017-01-31T03:13:18.748Z,1008.95
2017-01-31T03:14:30.159Z,1008.99
2017-01-31T03:15:41.766Z,1008.97
2017-01-31T03:16:53.193Z,1009
2017-01-31T03:18:04.593Z,1009
2017-01-31T03:19:16.045Z,1008.97
2017-01-31T03:20:27.473Z,1008.96
2017-01-31T03:21:38.885Z,1008.94
2017-01-31T03:22:50.290Z,1008.97
2017-01-31T03:24:01.695Z,1008.97
2017-01-31T03:25:13.150Z,1008.97
2017-01-31T03:26:24.565Z,1008.99
2017-01-31T03:27:35.967Z,1009.03
2017-01-31T03:28:47.370Z,1009.04
2017-01-31T03:29:58.971Z,1009.03
2017-01-31T03:31:10.426Z,1009.05
2017-01-31T03:32:21.833Z,1009.05
2017-01-31T03:33:33.437Z,1009.08
2017-01-31T03:34:44.840Z,1009.11
2017-01-31T03:35:56.243Z,1009.06
2017-01-31T03:37:07.695Z,1009.1
2017-01-31T03:38:19.102Z,1009.05
2017-01-31T03:39:30.514Z,1009.03
2017-01-31T03:40:42.122Z,1009.03
2017-01-31T03:41:53.545Z,1009.05
2017-01-31T03:43:05.000Z,1009.07
2017-01-31T03:44:16.398Z,1009.11
2017-01-31T03:45:27.808Z,1009.11
2017-01-31T03:46:39.213Z,1009.09
2017-01-31T03:47:50.813Z,1009.12
2017-01-31T03:49:02.264Z,1009.15
2017-01-31T03:50:13.869Z,1009.13
2017-01-31T03:51:25.273Z,1009.14
2017-01-31T03:52:36.675Z,1009.16
2017-01-31T03:53:48.289Z,1009.16
2017-01-31T03:54:59.763Z,1009.17
2017-01-31T03:56:11.403Z,1009.2
2017-01-31T03:57:22.815Z,1009.17
2017-01-31T03:58:34.227Z,1009.16
2017-01-31T03:59:45.632Z,1009.21
2017-01-31T04:00:57.090Z,1009.21
2017-01-31T04:02:08.505Z,1009.16
2017-01-31T04:03:19.919Z,1009.25
2017-01-31T04:04:31.319Z,1009.23
2017-01-31T04:05:42.729Z,1009.24
2017-01-31T04:06:54.187Z,1009.21
2017-01-31T04:08:05.593Z,1009.19
2017-01-31T04:09:17.001Z,1009.19
2017-01-31T04:10:28.416Z,1009.21
2017-01-31T04:11:40.019Z,1009.22
2017-01-31T04:12:51.676Z,1009.24
2017-01-31T04:14:03.090Z,1009.28
2017-01-31T04:15:14.689Z,1009.28
2017-01-31T04:16:26.292Z,1009.25
2017-01-31T04:17:37.733Z,1009.27
2017-01-31T04:18:49.385Z,1009.26
2017-01-31T04:20:00.790Z,1009.28
2017-01-31T04:21:12.600Z,1009.26
2017-01-31T04:22:24.004Z,1009.29
2017-01-31T04:23:35.614Z,1009.3
2017-01-31T04:24:47.064Z,1009.27
2017-01-31T04:25:58.473Z,1009.28
2017-01-31T04:27:09.879Z,1009.3
2017-01-31T04:28:21.278Z,1009.34
2017-01-31T04:29:32.690Z,1009.33
2017-01-31T04:30:44.142Z,1009.34
2017-01-31T04:31:55.532Z,1009.37
2017-01-31T04:33:06.940Z,1009.33
2017-01-31T04:34:18.340Z,1009.35
2017-01-31T04:35:29.740Z,1009.35
2017-01-31T04:36:41.417Z,1009.37
2017-01-31T04:37:52.829Z,1009.39
2017-01-31T04:39:04.251Z,1009.43
2017-01-31T04:40:15.655Z,1009.44
2017-01-31T04:41:27.051Z,1009.43
2017-01-31T04:42:38.706Z,1009.44
2017-01-31T04:43:50.315Z,1009.52
2017-01-31T04:45:01.921Z,1009.49
2017-01-31T04:46:13.327Z,1009.49
2017-01-31T04:47:24.726Z,1009.55
2017-01-31T04:48:36.193Z,1009.54
2017-01-31T04:49:47.636Z,1009.61
2017-01-31T04:50:59.040Z,1009.61
2017-01-31T04:52:10.480Z,1009.64
2017-01-31T04:53:21.920Z,1009.64
2017-01-31T04:54:33.370Z,1009.64
2017-01-31T04:55:44.777Z,1009.66
2017-01-31T04:56:56.183Z,1009.66
2017-01-31T04:58:07.612Z,1009.68
2017-01-31T04:59:19.217Z,1009.64
2017-01-31T05:00:30.874Z,1009.58
2017-01-31T05:01:42.274Z,1009.65
2017-01-31T05:02:53.675Z,1009.62
2017-01-31T05:04:05.082Z,1009.61
2017-01-31T05:05:16.487Z,1009.69
2017-01-31T05:06:28.143Z,1009.62
2017-01-31T05:07:39.547Z,1009.65
2017-01-31T05:08:50.955Z,1009.67
2017-01-31T05:10:02.366Z,1009.71
2017-01-31T05:11:13.775Z,1009.71
2017-01-31T05:12:25.229Z,1009.69
2017-01-31T05:13:36.624Z,1009.76
2017-01-31T05:14:48.228Z,1009.74
2017-01-31T05:15:59.631Z,1009.77
2017-01-31T05:17:11.040Z,1009.78
2017-01-31T05:18:22.489Z,1009.8
2017-01-31T05:19:33.893Z,1009.82
2017-01-31T05:20:45.302Z,1009.84
2017-01-31T05:21:56.707Z,1009.86
2017-01-31T05:23:08.117Z,1009.85
2017-01-31T05:24:19.579Z,1009.91
2017-01-31T05:25:30.976Z,1009.92
2017-01-31T05:26:42.380Z,1009.88
2017-01-31T05:27:53.800Z,1009.86
2017-01-31T05:29:05.207Z,1009.86
2017-01-31T05:30:16.863Z,1009.87
2017-01-31T05:31:28.270Z,1009.94
2017-01-31T05:32:39.675Z,1009.89
2017-01-31T05:33:51.085Z,1009.94
2017-01-31T05:35:02.696Z,1009.89
2017-01-31T05:36:14.561Z,1009.89
2017-01-31T05:37:25.962Z,1009.9
2017-01-31T05:38:37.365Z,1009.91
2017-01-31T05:39:48.769Z,1009.9
2017-01-31T05:41:00.170Z,1009.89
2017-01-31T05:42:11.624Z,1009.93
2017-01-31T05:43:23.028Z,1009.9
2017-01-31T05:44:34.439Z,1009.96
2017-01-31T05:45:45.843Z,1009.96
2017-01-31T05:46:57.245Z,1009.94
2017-01-31T05:48:08.703Z,1009.92
2017-01-31T05:49:20.305Z,1009.88
2017-01-31T05:50:31.715Z,1009.89
2017-01-31T05:51:43.114Z,1009.88
2017-01-31T05:52:54.519Z,1009.92
2017-01-31T05:54:05.970Z,1009.89
2017-01-31T05:55:17.371Z,1009.88
2017-01-31T05:56:28.774Z,1009.86
2017-01-31T05:57:40.373Z,1009.87
2017-01-31T05:58:51.772Z,1009.86
2017-01-31T06:00:03.430Z,1009.82
2017-01-31T06:01:14.826Z,1009.83
2017-01-31T06:02:26.232Z,1009.88
2017-01-31T06:03:37.655Z,1009.94
2017-01-31T06:04:49.062Z,1009.94
2017-01-31T06:06:00.517Z,1009.9
2017-01-31T06:07:11.920Z,1009.97
2017-01-31T06:08:23.325Z,1009.99
2017-01-31T06:09:34.733Z,1010.02
2017-01-31T06:10:46.343Z,1010.04
2017-01-31T06:11:57.799Z,1010.08
2017-01-31T06:13:09.409Z,1010.06
2017-01-31T06:14:21.014Z,1010.06
2017-01-31T06:15:32.451Z,1010.02
2017-01-31T06:16:43.856Z,1010.08
2017-01-31T06:17:55.512Z,1010.05
2017-01-31T06:19:06.919Z,1010.02
2017-01-31T06:20:18.328Z,1010
2017-01-31T06:21:29.925Z,1010.02
2017-01-31T06:22:41.326Z,1010.03
2017-01-31T06:23:52.777Z,1010.02
2017-01-31T06:25:04.176Z,1009.98
2017-01-31T06:26:15.581Z,1010
2017-01-31T06:27:26.978Z,1009.89
2017-01-31T06:28:38.377Z,1009.9
2017-01-31T06:29:49.837Z,1009.86
2017-01-31T06:31:01.236Z,1009.79
2017-01-31T06:32:12.873Z,1009.79
2017-01-31T06:33:24.480Z,1009.76
2017-01-31T06:34:35.880Z,1009.72
2017-01-31T06:35:47.345Z,1009.8
2017-01-31T06:36:58.746Z,1009.81
2017-01-31T06:38:10.158Z,1009.87
2017-01-31T06:39:21.766Z,1009.86
2017-01-31T06:40:33.168Z,1009.91
2017-01-31T06:41:44.621Z,1009.91
2017-01-31T06:42:56.020Z,1009.98
2017-01-31T06:44:07.448Z,1010.03
2017-01-31T06:45:18.858Z,1010.05
2017-01-31T06:46:30.291Z,1010.09
2017-01-31T06:47:41.752Z,1010.16
2017-01-31T06:48:53.150Z,1010.17
2017-01-31T06:50:04.748Z,1010.19
2017-01-31T06:51:16.153Z,1010.27
2017-01-31T06:52:27.554Z,1010.3
2017-01-31T06:53:39.008Z,1010.32
2017-01-31T06:54:50.411Z,1010.32
2017-01-31T06:56:01.865Z,1010.34
2017-01-31T06:57:13.272Z,1010.38
2017-01-31T06:58:24.676Z,1010.36
2017-01-31T06:59:36.126Z,1010.38
2017-01-31T07:00:47.527Z,1010.43
2017-01-31T07:01:58.932Z,1010.41
2017-01-31T07:03:10.543Z,1010.43
2017-01-31T07:04:21.942Z,1010.43
2017-01-31T07:05:33.399Z,1010.45
2017-01-31T07:06:44.813Z,1010.46
2017-01-31T07:07:56.217Z,1010.47
2017-01-31T07:09:07.629Z,1010.51
2017-01-31T07:10:19.244Z,1010.53
2017-01-31T07:11:30.901Z,1010.56
2017-01-31T07:12:42.296Z,1010.55
2017-01-31T07:13:53.918Z,1010.51
2017-01-31T07:15:05.321Z,1010.53
2017-01-31T07:16:16.718Z,1010.6
2017-01-31T07:17:28.385Z,1010.62
2017-01-31T07:18:39.987Z,1010.63
2017-01-31T07:19:51.403Z,1010.65
2017-01-31T07:21:02.804Z,1010.66
2017-01-31T07:22:14.204Z,1010.66
2017-01-31T07:23:25.653Z,1010.63
2017-01-31T07:24:37.058Z,1010.66
2017-01-31T07:25:48.463Z,1010.73
2017-01-31T07:26:59.867Z,1010.71
2017-01-31T07:28:11.282Z,1010.74
2017-01-31T07:29:22.739Z,1010.71
2017-01-31T07:30:34.152Z,1010.66
2017-01-31T07:31:45.555Z,1010.66
2017-01-31T07:32:56.965Z,1010.63
2017-01-31T07:34:08.365Z,1010.71
2017-01-31T07:35:19.818Z,1010.7
2017-01-31T07:36:31.226Z,1010.71
2017-01-31T07:37:42.629Z,1010.74
2017-01-31T07:38:54.039Z,1010.72
2017-01-31T07:40:05.441Z,1010.8
2017-01-31T07:41:16.896Z,1010.84
2017-01-31T07:42:28.306Z,1010.85
2017-01-31T07:43:39.708Z,1010.87
2017-01-31T07:44:51.519Z,1010.87
2017-01-31T07:46:02.919Z,1010.92
2017-01-31T07:47:14.380Z,1010.94
2017-01-31T07:48:25.795Z,1010.96
2017-01-31T07:49:37.198Z,1010.98
2017-01-31T07:50:48.811Z,1011
2017-01-31T07:52:00.215Z,1011.02
2017-01-31T07:53:11.672Z,1011.04
2017-01-31T07:54:23.285Z,1011.04
2017-01-31T07:55:34.691Z,1011.04
2017-01-31T07:56:46.094Z,1011.07
2017-01-31T07:57:57.516Z,1011.08
2017-01-31T07:59:09.005Z,1011.05
2017-01-31T08:00:20.408Z,1011.08
2017-01-31T08:01:31.817Z,1011.13
2017-01-31T08:02:43.220Z,1011.1
2017-01-31T08:03:54.830Z,1011.1
2017-01-31T08:05:06.281Z,1011.11
2017-01-31T08:06:17.684Z,1011.14
2017-01-31T08:07:29.079Z,1011.13
2017-01-31T08:08:40.488Z,1011.1
2017-01-31T08:09:51.919Z,1011.11
2017-01-31T08:11:03.372Z,1011.07
2017-01-31T08:12:14.781Z,1011.07
2017-01-31T08:13:26.186Z,1011.05
2017-01-31T08:14:37.591Z,1011
2017-01-31T08:15:48.996Z,1011.02
2017-01-31T08:17:00.665Z,1010.97
2017-01-31T08:18:12.084Z,1011
2017-01-31T08:19:23.491Z,1011.01
2017-01-31T08:20:35.100Z,1010.92
2017-01-31T08:21:46.507Z,1010.98
2017-01-31T08:22:57.970Z,1011.03
2017-01-31T08:24:09.383Z,1011.03
2017-01-31T08:25:20.812Z,1010.97
2017-01-31T08:26:32.229Z,1010.95
2017-01-31T08:27:43.641Z,1010.95
2017-01-31T08:28:55.092Z,1011.03
2017-01-31T08:30:06.513Z,1011.04
2017-01-31T08:31:17.924Z,1011.06
2017-01-31T08:32:29.324Z,1011.06
2017-01-31T08:33:40.733Z,1011.09
2017-01-31T08:34:52.195Z,1011.08
2017-01-31T08:36:03.594Z,1011.07
2017-01-31T08:37:14.991Z,1011.11
2017-01-31T08:38:26.403Z,1011.08
2017-01-31T08:39:37.815Z,1011.1
2017-01-31T08:40:49.270Z,1011.15
2017-01-31T08:42:00.682Z,1011.14
2017-01-31T08:43:12.091Z,1011.18
2017-01-31T08:44:23.489Z,1011.13
2017-01-31T08:45:34.899Z,1011.1
2017-01-31T08:46:46.362Z,1011.13
2017-01-31T08:47:57.785Z,1011.13
2017-01-31T08:49:09.196Z,1011.17
2017-01-31T08:50:20.607Z,1011.19
2017-01-31T08:51:32.019Z,1011.19
2017-01-31T08:52:43.477Z,1011.19
2017-01-31T08:53:54.882Z,1011.21
2017-01-31T08:55:06.288Z,1011.21
2017-01-31T08:56:17.696Z,1011.24
2017-01-31T08:57:29.094Z,1011.22
2017-01-31T08:58:40.559Z,1011.22
2017-01-31T08:59:51.976Z,1011.25
2017-01-31T09:01:03.381Z,1011.24
2017-01-31T09:02:14.792Z,1011.25
2017-01-31T09:03:26.209Z,1011.24
2017-01-31T09:04:37.654Z,1011.25
2017-01-31T09:05:49.059Z,1011.32
2017-01-31T09:07:00.465Z,1011.32
2017-01-31T09:08:11.871Z,1011.34
2017-01-31T09:09:23.276Z,1011.34
2017-01-31T09:10:34.928Z,1011.36
2017-01-31T09:11:46.339Z,1011.43
2017-01-31T09:12:57.771Z,1011.44
2017-01-31T09:14:09.177Z,1011.47
2017-01-31T09:15:20.581Z,1011.47
2017-01-31T09:16:32.036Z,1011.49
2017-01-31T09:17:43.442Z,1011.46
2017-01-31T09:18:54.844Z,1011.48
2017-01-31T09:20:06.254Z,1011.57
2017-01-31T09:21:17.856Z,1011.57
2017-01-31T09:22:29.318Z,1011.58
2017-01-31T09:23:40.932Z,1011.59
2017-01-31T09:24:52.344Z,1011.62
2017-01-31T09:26:03.760Z,1011.64
2017-01-31T09:27:15.178Z,1011.61
2017-01-31T09:28:26.638Z,1011.64
2017-01-31T09:29:38.244Z,1011.64
2017-01-31T09:30:49.646Z,1011.62
2017-01-31T09:32:01.049Z,1011.67
2017-01-31T09:33:12.461Z,1011.69
2017-01-31T09:34:23.919Z,1011.74
2017-01-31T09:35:35.325Z,1011.73
2017-01-31T09:36:46.751Z,1011.79
2017-01-31T09:37:58.364Z,1011.8
2017-01-31T09:39:09.786Z,1011.83
2017-01-31T09:40:21.246Z,1011.88
2017-01-31T09:41:32.652Z,1011.88
2017-01-31T09:42:44.266Z,1011.94
2017-01-31T09:43:55.669Z,1011.91
2017-01-31T09:45:07.275Z,1011.91
2017-01-31T09:46:18.750Z,1011.87
2017-01-31T09:47:30.153Z,1011.92
2017-01-31T09:48:41.559Z,1011.95
2017-01-31T09:49:52.969Z,1011.95
2017-01-31T09:51:04.585Z,1011.97
2017-01-31T09:52:16.045Z,1012.01
2017-01-31T09:53:27.452Z,1012.06
2017-01-31T09:54:38.859Z,1012.04
2017-01-31T09:55:50.259Z,1012.02
2017-01-31T09:57:01.667Z,1012.03
2017-01-31T09:58:13.126Z,1012.08
2017-01-31T09:59:24.536Z,1012.07
2017-01-31T10:00:35.947Z,1012.11
2017-01-31T10:01:47.351Z,1012.1
2017-01-31T10:02:58.759Z,1012.15
2017-01-31T10:04:10.226Z,1012.16
2017-01-31T10:05:21.635Z,1012.12
2017-01-31T10:06:33.041Z,1012.15
2017-01-31T10:07:44.466Z,1012.18
2017-01-31T10:08:55.874Z,1012.15
2017-01-31T10:10:07.325Z,1012.18
2017-01-31T10:11:18.731Z,1012.15
2017-01-31T10:12:30.136Z,1012.13
2017-01-31T10:13:41.748Z,1012.11
2017-01-31T10:14:53.150Z,1012.11
2017-01-31T10:16:04.601Z,1012.14
2017-01-31T10:17:16.004Z,1012.12
2017-01-31T10:18:27.613Z,1012.11
2017-01-31T10:19:39.018Z,1012.12
2017-01-31T10:20:50.426Z,1012.08
2017-01-31T10:22:01.887Z,1012.07
2017-01-31T10:23:13.490Z,1012.07
2017-01-31T10:24:24.896Z,1012.1
2017-01-31T10:25:36.297Z,1012.09
2017-01-31T10:26:47.702Z,1012.09
2017-01-31T10:27:59.164Z,1012.08
2017-01-31T10:29:10.580Z,1012.09
2017-01-31T10:30:22.178Z,1012.04
2017-01-31T10:31:33.788Z,1012.08
2017-01-31T10:32:45.200Z,1012.07
2017-01-31T10:33:56.653Z,1012.01
2017-01-31T10:35:08.053Z,1012.05
2017-01-31T10:36:19.470Z,1012.04
2017-01-31T10:37:30.881Z,1012.06
2017-01-31T10:38:42.290Z,1012.06
2017-01-31T10:39:53.773Z,1012.03
2017-01-31T10:41:05.178Z,1012.07
2017-01-31T10:42:16.585Z,1012.07
2017-01-31T10:43:27.994Z,1012.1
2017-01-31T10:44:39.401Z,1012.1
2017-01-31T10:45:50.862Z,1012.11
2017-01-31T10:47:02.471Z,1012.1
2017-01-31T10:48:13.872Z,1012.12
2017-01-31T10:49:25.280Z,1012.16
2017-01-31T10:50:36.713Z,1012.14
2017-01-31T10:51:48.172Z,1012.15
2017-01-31T10:52:59.581Z,1012.13
2017-01-31T10:54:10.995Z,1012.17
2017-01-31T10:55:22.404Z,1012.21
2017-01-31T10:56:33.819Z,1012.19
2017-01-31T10:57:45.270Z,1012.16
2017-01-31T10:58:56.671Z,1012.17
2017-01-31T11:00:08.095Z,1012.2
2017-01-31T11:01:19.495Z,1012.16
2017-01-31T11:02:30.899Z,1012.19
2017-01-31T11:03:42.560Z,1012.18
2017-01-31T11:04:53.963Z,1012.22
2017-01-31T11:06:05.381Z,1012.19
2017-01-31T11:07:16.796Z,1012.17
2017-01-31T11:08:28.208Z,1012.19
2017-01-31T11:09:39.668Z,1012.2
2017-01-31T11:10:51.074Z,1012.22
2017-01-31T11:12:02.716Z,1012.2
2017-01-31T11:13:14.123Z,1012.22
2017-01-31T11:14:25.523Z,1012.21
2017-01-31T11:15:36.980Z,1012.25
2017-01-31T11:16:48.383Z,1012.28
2017-01-31T11:17:59.792Z,1012.28
2017-01-31T11:19:11.602Z,1012.3
2017-01-31T11:20:23.007Z,1012.29
2017-01-31T11:21:34.862Z,1012.33
2017-01-31T11:22:46.267Z,1012.29
2017-01-31T11:23:57.675Z,1012.3
2017-01-31T11:25:09.077Z,1012.3
2017-01-31T11:26:20.685Z,1012.34
2017-01-31T11:27:32.144Z,1012.35
2017-01-31T11:28:43.560Z,1012.34
2017-01-31T11:29:55.163Z,1012.43
2017-01-31T11:31:06.583Z,1012.42
2017-01-31T11:32:17.992Z,1012.38
2017-01-31T11:33:29.658Z,1012.35
2017-01-31T11:34:41.068Z,1012.36
2017-01-31T11:35:52.478Z,1012.37
2017-01-31T11:37:03.888Z,1012.37
2017-01-31T11:38:15.294Z,1012.36
2017-01-31T11:39:26.949Z,1012.39
2017-01-31T11:40:38.356Z,1012.42
2017-01-31T11:41:49.772Z,1012.41
2017-01-31T11:43:01.182Z,1012.41
2017-01-31T11:44:12.588Z,1012.4
2017-01-31T11:45:24.041Z,1012.43
2017-01-31T11:46:35.452Z,1012.45
2017-01-31T11:47:46.862Z,1012.44
2017-01-31T11:48:58.264Z,1012.52
2017-01-31T11:50:09.674Z,1012.48
2017-01-31T11:51:21.131Z,1012.47
2017-01-31T11:52:32.746Z,1012.46
2017-01-31T11:53:44.158Z,1012.48
2017-01-31T11:54:55.557Z,1012.53
2017-01-31T11:56:06.965Z,1012.53
2017-01-31T11:57:18.429Z,1012.53
2017-01-31T11:58:29.836Z,1012.54
2017-01-31T11:59:41.244Z,1012.57
2017-01-31T12:00:52.656Z,1012.54
2017-01-31T12:02:04.062Z,1012.54
2017-01-31T12:03:15.718Z,1012.55
2017-01-31T12:04:27.126Z,1012.55
2017-01-31T12:05:38.537Z,1012.55
2017-01-31T12:06:49.944Z,1012.61
2017-01-31T12:08:01.350Z,1012.64
2017-01-31T12:09:13.212Z,1012.64
2017-01-31T12:10:24.619Z,1012.61
2017-01-31T12:11:36.253Z,1012.63
2017-01-31T12:12:47.663Z,1012.61
2017-01-31T12:13:59.066Z,1012.59
2017-01-31T12:15:10.557Z,1012.61
2017-01-31T12:16:21.964Z,1012.57
2017-01-31T12:17:33.376Z,1012.55
2017-01-31T12:18:44.790Z,1012.56
2017-01-31T12:19:56.398Z,1012.6
2017-01-31T12:21:08.059Z,1012.59
2017-01-31T12:22:19.664Z,1012.59
2017-01-31T12:23:31.074Z,1012.55
2017-01-31T12:24:42.470Z,1012.56
2017-01-31T12:25:53.880Z,1012.57
2017-01-31T12:27:05.337Z,1012.59
2017-01-31T12:28:16.746Z,1012.58
2017-01-31T12:29:28.159Z,1012.51
2017-01-31T12:30:39.770Z,1012.5
2017-01-31T12:31:51.380Z,1012.56
2017-01-31T12:33:02.871Z,1012.54
2017-01-31T12:34:14.287Z,1012.6
2017-01-31T12:35:25.696Z,1012.55
2017-01-31T12:36:37.108Z,1012.57
2017-01-31T12:37:48.522Z,1012.6
2017-01-31T12:38:59.982Z,1012.65
2017-01-31T12:40:11.590Z,1012.66
2017-01-31T12:41:22.995Z,1012.62
2017-01-31T12:42:34.401Z,1012.62
2017-01-31T12:43:45.808Z,1012.63
2017-01-31T12:44:57.264Z,1012.55
2017-01-31T12:46:08.676Z,1012.58
2017-01-31T12:47:20.088Z,1012.56
2017-01-31T12:48:31.499Z,1012.55
2017-01-31T12:49:42.915Z,1012.56
2017-01-31T12:50:54.368Z,1012.56
2017-01-31T12:52:05.777Z,1012.61
2017-01-31T12:53:17.190Z,1012.65
2017-01-31T12:54:28.604Z,1012.67
2017-01-31T12:55:40.038Z,1012.66
2017-01-31T12:56:51.493Z,1012.61
2017-01-31T12:58:02.903Z,1012.69
2017-01-31T12:59:14.313Z,1012.69
2017-01-31T13:00:25.717Z,1012.64
2017-01-31T13:01:37.119Z,1012.71
2017-01-31T13:02:48.579Z,1012.67
2017-01-31T13:03:59.993Z,1012.71
2017-01-31T13:05:11.609Z,1012.7
2017-01-31T13:06:23.416Z,1012.74
2017-01-31T13:07:34.864Z,1012.72
2017-01-31T13:08:46.337Z,1012.7
2017-01-31T13:09:57.742Z,1012.69
2017-01-31T13:11:09.142Z,1012.71
2017-01-31T13:12:20.754Z,1012.71
2017-01-31T13:13:32.161Z,1012.72
2017-01-31T13:14:43.614Z,1012.71
2017-01-31T13:15:55.019Z,1012.73
2017-01-31T13:17:06.431Z,1012.74
2017-01-31T13:18:17.838Z,1012.75
2017-01-31T13:19:29.250Z,1012.77
2017-01-31T13:20:40.715Z,1012.78
2017-01-31T13:21:52.123Z,1012.83
2017-01-31T13:23:03.550Z,1012.82
2017-01-31T13:24:14.969Z,1012.77
2017-01-31T13:25:26.378Z,1012.8
2017-01-31T13:26:37.835Z,1012.78
2017-01-31T13:27:49.442Z,1012.82
2017-01-31T13:29:01.053Z,1012.82
2017-01-31T13:30:12.661Z,1012.82
2017-01-31T13:31:24.064Z,1012.81
2017-01-31T13:32:35.521Z,1012.82
2017-01-31T13:33:46.926Z,1012.8
2017-01-31T13:34:58.337Z,1012.79
2017-01-31T13:36:09.743Z,1012.8
2017-01-31T13:37:21.185Z,1012.81
2017-01-31T13:38:32.847Z,1012.8
2017-01-31T13:39:44.485Z,1012.82
2017-01-31T13:40:55.898Z,1012.81
2017-01-31T13:42:07.303Z,1012.8
2017-01-31T13:43:18.710Z,1012.81
2017-01-31T13:44:30.176Z,1012.84
2017-01-31T13:45:41.780Z,1012.85
2017-01-31T13:46:53.215Z,1012.84
2017-01-31T13:48:04.643Z,1012.87
2017-01-31T13:49:16.044Z,1012.88
2017-01-31T13:50:27.507Z,1012.84
2017-01-31T13:51:39.118Z,1012.82
2017-01-31T13:52:50.523Z,1012.8
2017-01-31T13:54:01.933Z,1012.82
2017-01-31T13:55:13.377Z,1012.81
2017-01-31T13:56:24.841Z,1012.82
2017-01-31T13:57:36.296Z,1012.84
2017-01-31T13:58:47.725Z,1012.82
2017-01-31T13:59:59.127Z,1012.82
2017-01-31T14:01:10.533Z,1012.79
2017-01-31T14:02:21.991Z,1012.79
2017-01-31T14:03:33.605Z,1012.79
2017-01-31T14:04:45.009Z,1012.82
2017-01-31T14:05:56.416Z,1012.82
2017-01-31T14:07:07.824Z,1012.87
2017-01-31T14:08:19.281Z,1012.85
2017-01-31T14:09:30.690Z,1012.89
2017-01-31T14:10:42.100Z,1012.91
2017-01-31T14:11:53.713Z,1012.93
2017-01-31T14:13:05.130Z,1012.92
2017-01-31T14:14:16.588Z,1012.92
2017-01-31T14:15:27.990Z,1012.92
2017-01-31T14:16:39.606Z,1012.93
2017-01-31T14:17:51.015Z,1012.9
2017-01-31T14:19:02.434Z,1012.93
2017-01-31T14:20:14.083Z,1012.92
2017-01-31T14:21:25.486Z,1012.95
2017-01-31T14:22:36.894Z,1012.91
2017-01-31T14:23:48.294Z,1012.91
2017-01-31T14:24:59.700Z,1012.93
2017-01-31T14:26:11.230Z,1012.93
2017-01-31T14:27:22.638Z,1012.93